EDDH/HAM METAR and TAF weather

Enter ICAO airport designator
Station Type Date Time Source
EDDH METAR 2019/04/26 04:20 UTC NOAA

EDDH 260420Z 07004KT CAVOK 14/06 Q1007 NOSIG


Station Type Date Time Source
EDDH Decoded METAR 2019/04/26 04:20 UTC NOAA

Hamburg-Fuhlsbuettel, Germany (EDDH) 53-38N 010-00E 15M
Apr 26, 2019 - 12:20 AM EDT / 2019.04.26 0420 UTC
Wind: from the ENE (070 degrees) at 5 MPH (4 KT):0
Visibility: greater than 7 mile(s):0
Temperature: 57 F (14 C)
Dew Point: 42 F (6 C)
Relative Humidity: 58%
Pressure (altimeter): 29.74 in. Hg (1007 hPa)
ob: EDDH 260420Z 07004KT CAVOK 14/06 Q1007 NOSIG
cycle: 4

Station Type Date Time Source
EDDH TAF 2019/04/25 18:27 UTC NOAA

TAF EDDH 251700Z 2518/2624 10006KT CAVOK PROB30
TEMPO 2603/2607 SHRA BKN013
BECMG 2604/2606 16003KT
BECMG 2606/2608 28010KT
BECMG 2616/2618 28005KT

Example: see airport list